Time;durP1;ratioP1;P1;durP2;ratioP2;P2;SDS_P1;SDS_P2;PMS_P1;PMS_P2;Temp;Humidity;BMP_temperature;BMP_pressure;BME280_temperature;BME280_humidity;BME280_pressure;Samples;Min_cycle;Max_cycle;Signal;HPM_P1;HPM_P2
2023/03/29 00:01:24;;;;;;;8.02;5.15;;;7.40;99.10;;;;;;5042204;28;20210;-81
2023/03/29 00:03:52;;;;;;;6.82;5.03;;;7.50;99.20;;;;;;5053164;28;20210;-81
2023/03/29 00:06:20;;;;;;;11.85;4.85;;;7.50;99.10;;;;;;5044688;28;20220;-81
2023/03/29 00:08:49;;;;;;;6.10;4.95;;;7.50;99.40;;;;;;5047295;28;20249;-80
2023/03/29 00:11:18;;;;;;;5.70;3.90;;;7.50;99.30;;;;;;5042809;28;20211;-79
2023/03/29 00:13:44;;;;;;;7.65;4.90;;;7.50;99.10;;;;;;5042724;28;20278;-79
2023/03/29 00:16:12;;;;;;;5.30;4.80;;;7.50;99.00;;;;;;5049197;28;20223;-81
2023/03/29 00:18:39;;;;;;;8.43;5.70;;;7.50;99.10;;;;;;5044743;28;20207;-81
2023/03/29 00:21:06;;;;;;;8.10;4.72;;;7.50;99.40;;;;;;5051229;28;20207;-81
2023/03/29 00:23:33;;;;;;;7.82;4.80;;;7.30;99.60;;;;;;5051482;28;20207;-81
2023/03/29 00:26:00;;;;;;;10.65;5.40;;;7.30;99.80;;;;;;5051382;28;20306;-80
2023/03/29 00:28:28;;;;;;;11.10;5.10;;;7.30;99.90;;;;;;5049572;28;20289;-80
2023/03/29 00:31:04;;;;;;;8.50;5.78;;;7.30;99.90;;;;;;5046222;28;20212;-80
2023/03/29 00:33:31;;;;;;;10.82;4.95;;;7.20;99.90;;;;;;5049692;28;20211;-80
2023/03/29 00:35:57;;;;;;;7.47;5.05;;;7.30;99.90;;;;;;5045016;28;20224;-82
2023/03/29 00:38:24;;;;;;;11.52;5.35;;;7.40;99.90;;;;;;5041884;28;20220;-80
2023/03/29 00:40:52;;;;;;;10.10;5.45;;;7.40;99.90;;;;;;5050504;28;20210;-82
2023/03/29 00:43:18;;;;;;;9.57;4.82;;;7.60;99.90;;;;;;5044341;28;20353;-81
2023/03/29 00:45:47;;;;;;;8.18;4.90;;;7.40;99.90;;;;;;5049219;28;20271;-81
2023/03/29 00:48:17;;;;;;;5.85;4.40;;;7.40;99.90;;;;;;5042229;28;20227;-82
2023/03/29 00:50:49;;;;;;;6.68;5.07;;;7.20;99.90;;;;;;5054527;28;20210;-81
2023/03/29 00:53:21;;;;;;;9.20;5.38;;;7.10;99.90;;;;;;5052172;28;20229;-81
2023/03/29 00:55:52;;;;;;;9.73;5.50;;;7.10;99.90;;;;;;5041239;28;20232;-80
2023/03/29 00:58:25;;;;;;;6.68;4.38;;;7.00;99.90;;;;;;5044841;28;20212;-80
2023/03/29 01:01:00;;;;;;;7.93;5.40;;;6.90;99.90;;;;;;5041795;28;20223;-80
2023/03/29 01:03:31;;;;;;;9.10;5.80;;;6.90;99.90;;;;;;5042292;28;20233;-80
2023/03/29 01:06:01;;;;;;;10.75;6.57;;;6.90;99.90;;;;;;5040055;28;20223;-79
2023/03/29 01:08:34;;;;;;;8.07;5.65;;;6.80;99.90;;;;;;5042487;28;20322;-79
2023/03/29 01:11:06;;;;;;;9.00;6.28;;;6.70;99.90;;;;;;5045429;28;20277;-80
2023/03/29 01:13:38;;;;;;;13.48;5.70;;;6.70;99.90;;;;;;5045482;28;20207;-79
2023/03/29 01:16:09;;;;;;;9.80;5.35;;;6.50;99.90;;;;;;5052597;28;20219;-80
2023/03/29 01:18:36;;;;;;;16.63;6.60;;;6.60;99.90;;;;;;5055263;28;20263;-81
2023/03/29 01:21:18;;;;;;;10.70;4.88;;;6.70;99.90;;;;;;5049938;28;20240;-80
2023/03/29 01:24:05;;;;;;;12.50;6.68;;;6.60;99.90;;;;;;5062055;28;20201;-80
2023/03/29 01:26:42;;;;;;;11.93;5.70;;;6.60;99.90;;;;;;5062501;28;20195;-79
2023/03/29 01:29:15;;;;;;;11.82;5.30;;;6.70;99.90;;;;;;5059653;28;20246;-79
2023/03/29 01:31:45;;;;;;;6.55;4.70;;;6.70;99.90;;;;;;5059407;28;20188;-79
2023/03/29 01:34:18;;;;;;;7.03;4.90;;;6.50;99.90;;;;;;5054690;28;20233;-79
2023/03/29 01:37:08;;;;;;;10.30;4.88;;;6.70;99.90;;;;;;5060730;28;20247;-79
2023/03/29 01:39:35;;;;;;;7.28;5.45;;;6.70;99.90;;;;;;5049237;28;20297;-81
2023/03/29 01:42:23;;;;;;;5.72;4.72;;;6.80;99.90;;;;;;5046648;28;20210;-80
2023/03/29 01:44:57;;;;;;;11.80;5.10;;;6.80;99.90;;;;;;5045241;28;20282;-80
2023/03/29 01:47:30;;;;;;;7.82;5.07;;;6.80;99.90;;;;;;5045679;28;20251;-80
2023/03/29 01:50:06;;;;;;;10.88;5.28;;;6.80;99.90;;;;;;5063331;28;20232;-81
2023/03/29 01:52:38;;;;;;;11.82;5.15;;;6.90;99.90;;;;;;5057000;28;20269;-81
2023/03/29 01:55:10;;;;;;;5.45;4.20;;;6.80;99.90;;;;;;5056060;28;20227;-80
2023/03/29 01:57:40;;;;;;;5.95;4.97;;;6.80;99.90;;;;;;5055309;28;20214;-80
2023/03/29 02:00:13;;;;;;;6.15;4.45;;;6.80;99.90;;;;;;5061166;28;20207;-80
2023/03/29 02:02:42;;;;;;;6.47;5.07;;;6.80;99.90;;;;;;5051320;28;20196;-79
2023/03/29 02:05:13;;;;;;;7.43;4.68;;;6.80;99.90;;;;;;5055704;28;20228;-79
2023/03/29 02:07:41;;;;;;;8.57;4.55;;;6.90;99.90;;;;;;5057098;28;20198;-79
2023/03/29 02:10:10;;;;;;;6.68;4.68;;;6.80;99.90;;;;;;5067975;28;20220;-81
2023/03/29 02:12:37;;;;;;;7.55;4.85;;;6.80;99.90;;;;;;5049738;28;21085;-80
2023/03/29 02:15:05;;;;;;;8.75;4.70;;;6.80;99.90;;;;;;5046899;28;20242;-79
2023/03/29 02:17:34;;;;;;;7.55;4.53;;;6.80;99.90;;;;;;5056805;28;20700;-80
2023/03/29 02:20:12;;;;;;;7.03;4.85;;;6.80;99.90;;;;;;5056362;28;20269;-81
2023/03/29 02:22:45;;;;;;;11.63;5.30;;;6.90;99.90;;;;;;5051928;28;21268;-80
2023/03/29 02:25:11;;;;;;;11.38;6.45;;;6.90;99.90;;;;;;5052329;28;20223;-81
2023/03/29 02:27:39;;;;;;;10.48;5.05;;;6.80;99.90;;;;;;5044700;28;20266;-79
2023/03/29 02:30:08;;;;;;;11.43;5.65;;;6.80;99.90;;;;;;5058566;28;20296;-79
2023/03/29 02:32:47;;;;;;;10.43;5.45;;;6.80;99.90;;;;;;5063908;28;20230;-79
2023/03/29 02:35:17;;;;;;;9.93;6.25;;;6.80;99.90;;;;;;5046900;28;20262;-79
2023/03/29 02:37:48;;;;;;;7.90;6.18;;;6.70;99.90;;;;;;5065065;28;20656;-80
2023/03/29 02:40:17;;;;;;;11.60;6.30;;;6.70;99.90;;;;;;5057691;28;20190;-80
2023/03/29 02:42:45;;;;;;;9.00;6.65;;;6.60;99.90;;;;;;5049684;28;20574;-79
2023/03/29 02:45:15;;;;;;;17.48;7.93;;;6.60;99.90;;;;;;5057989;28;20227;-80
2023/03/29 02:47:48;;;;;;;7.82;6.35;;;6.60;99.90;;;;;;5036611;28;20203;-81
2023/03/29 02:50:15;;;;;;;10.80;6.47;;;6.60;99.90;;;;;;5047939;28;20231;-81
2023/03/29 02:52:48;;;;;;;9.20;6.57;;;6.60;99.90;;;;;;5041043;28;20236;-81
2023/03/29 02:55:19;;;;;;;10.15;6.57;;;6.60;99.90;;;;;;5043444;28;20232;-78
2023/03/29 02:57:45;;;;;;;8.95;7.93;;;6.60;99.90;;;;;;5043301;28;20205;-81
2023/03/29 03:00:18;;;;;;;11.88;8.43;;;6.50;99.90;;;;;;5046838;28;20464;-79
2023/03/29 03:02:49;;;;;;;17.20;8.75;;;6.50;99.90;;;;;;5046798;28;20208;-80
2023/03/29 03:05:16;;;;;;;11.35;9.18;;;6.40;99.90;;;;;;5058516;28;20228;-79
2023/03/29 03:07:44;;;;;;;16.85;10.50;;;6.50;99.90;;;;;;5054700;28;20207;-80
2023/03/29 03:10:11;;;;;;;17.45;10.45;;;6.60;99.90;;;;;;5069827;28;20223;-79
2023/03/29 03:12:38;;;;;;;12.00;9.57;;;6.60;99.90;;;;;;5065720;28;20269;-77
2023/03/29 03:15:06;;;;;;;12.57;10.70;;;6.60;99.90;;;;;;5061985;28;20238;-80
2023/03/29 03:17:38;;;;;;;14.35;10.98;;;6.70;99.90;;;;;;5048953;28;20222;-79
2023/03/29 03:20:11;;;;;;;14.70;12.13;;;6.70;99.90;;;;;;5057322;28;20194;-78
2023/03/29 03:22:39;;;;;;;22.08;12.45;;;6.70;99.90;;;;;;5057812;28;20180;-79
2023/03/29 03:25:09;;;;;;;14.90;12.68;;;6.80;99.90;;;;;;5061718;28;20236;-80
2023/03/29 03:27:35;;;;;;;14.40;11.32;;;6.80;99.90;;;;;;5046503;28;20243;-80
2023/03/29 03:30:04;;;;;;;15.38;11.48;;;6.90;99.90;;;;;;5060583;28;20230;-80
2023/03/29 03:32:32;;;;;;;14.38;10.95;;;6.80;99.90;;;;;;5057710;28;20208;-79
2023/03/29 03:34:59;;;;;;;12.63;11.30;;;6.80;99.90;;;;;;5063182;28;20218;-79
2023/03/29 03:37:28;;;;;;;18.20;12.07;;;6.80;99.90;;;;;;5063012;28;20207;-81
2023/03/29 03:39:55;;;;;;;17.70;13.13;;;6.90;99.90;;;;;;5032607;28;20230;-81
2023/03/29 03:42:22;;;;;;;17.52;13.60;;;6.80;99.90;;;;;;5046747;28;20211;-81
2023/03/29 03:44:49;;;;;;;20.75;11.70;;;6.90;99.90;;;;;;5041406;28;20269;-81
2023/03/29 03:47:16;;;;;;;13.00;10.90;;;6.90;99.90;;;;;;5045410;28;20290;-82
2023/03/29 03:49:43;;;;;;;14.85;12.07;;;6.80;99.90;;;;;;5045069;28;20319;-81
2023/03/29 03:52:10;;;;;;;19.20;12.73;;;6.80;99.90;;;;;;5053723;28;20259;-81
2023/03/29 03:54:38;;;;;;;14.88;11.52;;;6.80;99.90;;;;;;5046471;28;20243;-82
2023/03/29 03:57:05;;;;;;;13.18;11.02;;;6.80;99.90;;;;;;5043442;28;20204;-81
2023/03/29 03:59:32;;;;;;;14.13;12.38;;;6.80;99.90;;;;;;5046165;28;20278;-80
2023/03/29 04:01:59;;;;;;;19.48;14.45;;;6.70;99.90;;;;;;5055053;28;20731;-81
2023/03/29 04:04:26;;;;;;;17.17;13.07;;;6.60;99.90;;;;;;5042627;28;20290;-81
2023/03/29 04:06:53;;;;;;;18.50;13.90;;;6.70;99.90;;;;;;5048285;28;20214;-80
2023/03/29 04:09:22;;;;;;;18.40;13.93;;;6.70;99.90;;;;;;5038993;28;20309;-80
2023/03/29 04:11:51;;;;;;;20.85;14.98;;;6.70;99.90;;;;;;5055489;28;20234;-82
2023/03/29 04:14:19;;;;;;;14.85;12.43;;;6.70;99.90;;;;;;5054778;28;20426;-81
2023/03/29 04:16:46;;;;;;;18.58;14.00;;;6.80;99.90;;;;;;5041961;28;20620;-81
2023/03/29 04:19:13;;;;;;;21.27;13.30;;;6.70;99.90;;;;;;5044823;28;20270;-81
2023/03/29 04:21:41;;;;;;;16.70;12.27;;;6.80;99.90;;;;;;5049069;28;20261;-81
2023/03/29 04:24:08;;;;;;;16.02;13.63;;;6.90;99.90;;;;;;5058458;28;20207;-81
2023/03/29 04:26:35;;;;;;;14.48;11.15;;;6.80;99.90;;;;;;5055195;28;20209;-81
2023/03/29 04:29:03;;;;;;;15.23;11.00;;;7.00;99.90;;;;;;5047832;28;20330;-81
2023/03/29 04:31:31;;;;;;;10.68;9.40;;;6.90;99.90;;;;;;5036831;28;20268;-81
2023/03/29 04:33:57;;;;;;;14.68;10.30;;;6.80;99.90;;;;;;5036682;28;20561;-82
2023/03/29 04:36:25;;;;;;;13.25;9.77;;;6.70;99.90;;;;;;5042442;28;20766;-80
2023/03/29 04:38:52;;;;;;;16.00;11.52;;;6.80;99.90;;;;;;5042381;28;20225;-81
2023/03/29 04:41:19;;;;;;;12.07;9.57;;;6.90;99.90;;;;;;5039875;28;20204;-82
2023/03/29 04:43:46;;;;;;;14.13;10.68;;;6.80;99.90;;;;;;5054707;28;20322;-82
2023/03/29 04:46:15;;;;;;;12.95;11.07;;;6.80;99.90;;;;;;5041355;28;20318;-81
2023/03/29 04:48:42;;;;;;;14.32;9.70;;;6.80;99.90;;;;;;5046569;28;20223;-81
2023/03/29 04:51:09;;;;;;;11.52;9.48;;;6.90;99.90;;;;;;5051101;28;20213;-81
2023/03/29 04:53:36;;;;;;;11.40;9.60;;;6.90;99.90;;;;;;5042730;28;20242;-81
2023/03/29 04:56:03;;;;;;;11.90;9.98;;;6.80;99.90;;;;;;5052291;28;20227;-81
2023/03/29 04:58:29;;;;;;;14.85;9.57;;;6.90;99.90;;;;;;5053824;28;20230;-82
2023/03/29 05:00:57;;;;;;;12.45;8.55;;;6.60;99.90;;;;;;5059432;28;20266;-82
2023/03/29 05:03:25;;;;;;;13.32;8.57;;;6.90;99.90;;;;;;5056357;28;20210;-78
2023/03/29 05:05:52;;;;;;;10.45;9.30;;;6.80;99.90;;;;;;5036988;28;20262;-81
2023/03/29 05:08:20;;;;;;;13.02;8.85;;;7.00;99.90;;;;;;5050555;28;20203;-82
2023/03/29 05:10:48;;;;;;;12.43;7.80;;;6.90;99.90;;;;;;5055608;28;20281;-80
2023/03/29 05:13:15;;;;;;;9.73;7.63;;;7.00;99.90;;;;;;5048658;28;20203;-80
2023/03/29 05:15:42;;;;;;;10.63;7.38;;;6.90;99.90;;;;;;5046423;28;20436;-80
2023/03/29 05:18:09;;;;;;;10.65;7.95;;;6.80;99.90;;;;;;5040712;28;20295;-81
2023/03/29 05:20:39;;;;;;;10.18;9.10;;;6.90;99.90;;;;;;5041309;28;20230;-82
2023/03/29 05:23:06;;;;;;;15.02;8.98;;;7.00;99.90;;;;;;5045813;28;20287;-81
2023/03/29 05:25:33;;;;;;;12.45;7.88;;;7.00;99.90;;;;;;5039226;28;20273;-80
2023/03/29 05:28:01;;;;;;;9.90;8.27;;;7.00;99.90;;;;;;5047056;28;20203;-82
2023/03/29 05:30:28;;;;;;;10.32;8.13;;;7.20;99.90;;;;;;5046946;28;20242;-82
2023/03/29 05:32:55;;;;;;;11.02;7.72;;;7.00;99.90;;;;;;5053499;28;20235;-78
2023/03/29 05:35:24;;;;;;;10.10;6.63;;;7.00;99.90;;;;;;5045439;28;20247;-81
2023/03/29 05:37:52;;;;;;;10.50;7.70;;;6.90;99.90;;;;;;5055769;28;20692;-80
2023/03/29 05:40:19;;;;;;;10.93;7.35;;;6.90;99.90;;;;;;5058919;28;20218;-78
2023/03/29 05:42:46;;;;;;;8.05;6.82;;;7.00;99.90;;;;;;5067466;28;20926;-79
2023/03/29 05:45:13;;;;;;;9.73;7.15;;;7.00;99.90;;;;;;5068787;28;20216;-80
2023/03/29 05:47:40;;;;;;;11.20;7.43;;;7.10;99.90;;;;;;5075365;28;20193;-78
2023/03/29 05:50:09;;;;;;;9.85;6.80;;;7.00;99.90;;;;;;5064164;28;20226;-78
2023/03/29 05:52:36;;;;;;;13.50;7.25;;;7.00;99.90;;;;;;5058871;28;20233;-79
2023/03/29 05:55:05;;;;;;;9.55;7.78;;;7.20;99.90;;;;;;5059755;28;20227;-78
2023/03/29 05:57:32;;;;;;;10.93;6.75;;;7.20;99.90;;;;;;5061108;28;20199;-79
2023/03/29 05:59:59;;;;;;;16.15;6.78;;;7.40;99.90;;;;;;5059116;28;20196;-78
2023/03/29 06:02:27;;;;;;;7.80;6.45;;;7.30;99.90;;;;;;5066251;28;20215;-78
2023/03/29 06:04:54;;;;;;;8.00;6.50;;;7.40;99.90;;;;;;5057432;28;20254;-78
2023/03/29 06:07:22;;;;;;;8.75;6.35;;;7.50;99.90;;;;;;5057091;28;20192;-78
2023/03/29 06:09:48;;;;;;;12.40;6.72;;;7.50;99.90;;;;;;5057670;28;20227;-80
2023/03/29 06:12:18;;;;;;;16.45;11.40;;;7.40;99.90;;;;;;5054494;28;20203;-82
2023/03/29 06:14:47;;;;;;;14.27;7.00;;;7.50;99.90;;;;;;5043935;28;20235;-80
2023/03/29 06:17:14;;;;;;;8.90;6.13;;;7.70;99.90;;;;;;5048109;28;20204;-81
2023/03/29 06:19:41;;;;;;;9.20;6.50;;;7.60;99.90;;;;;;5049396;28;20249;-82
2023/03/29 06:22:08;;;;;;;6.35;5.57;;;7.70;99.90;;;;;;5059878;28;20267;-81
2023/03/29 06:24:35;;;;;;;11.13;5.97;;;7.80;99.90;;;;;;5047911;28;20603;-80
2023/03/29 06:27:02;;;;;;;7.18;6.43;;;7.60;99.90;;;;;;5050550;28;20227;-82
2023/03/29 06:29:30;;;;;;;7.90;6.03;;;7.50;99.90;;;;;;5054232;28;20298;-79
2023/03/29 06:31:57;;;;;;;6.60;5.40;;;7.70;99.90;;;;;;5051352;28;20208;-81
2023/03/29 06:34:24;;;;;;;8.02;6.90;;;7.80;99.90;;;;;;5041689;28;20254;-81
2023/03/29 06:36:51;;;;;;;7.15;6.40;;;7.70;99.90;;;;;;5042802;28;20247;-80
2023/03/29 06:39:18;;;;;;;8.50;6.30;;;7.70;99.90;;;;;;5045693;28;20238;-81
2023/03/29 06:41:45;;;;;;;9.15;6.43;;;7.80;99.90;;;;;;5047629;28;20288;-81
2023/03/29 06:44:12;;;;;;;5.70;5.20;;;7.90;99.90;;;;;;5047966;28;20323;-79
2023/03/29 06:46:40;;;;;;;8.18;5.70;;;7.90;99.90;;;;;;5044286;28;20294;-82
2023/03/29 06:49:07;;;;;;;9.32;6.45;;;8.00;99.90;;;;;;5049932;28;20271;-82
2023/03/29 06:51:34;;;;;;;10.85;6.97;;;7.90;99.90;;;;;;5037935;28;20755;-82
2023/03/29 06:54:01;;;;;;;10.98;7.80;;;8.00;99.90;;;;;;5046536;28;20204;-83
2023/03/29 06:56:28;;;;;;;7.57;5.22;;;8.00;99.90;;;;;;5043706;28;20232;-82
2023/03/29 06:58:55;;;;;;;12.30;6.47;;;8.00;99.90;;;;;;5044482;28;20250;-81
2023/03/29 07:01:22;;;;;;;7.82;5.10;;;8.20;99.90;;;;;;5046976;28;20627;-81
2023/03/29 07:03:51;;;;;;;10.27;6.50;;;8.10;99.90;;;;;;5053663;28;20204;-81
2023/03/29 07:06:19;;;;;;;6.40;5.57;;;8.10;99.90;;;;;;5046506;28;20246;-83
2023/03/29 07:08:51;;;;;;;8.48;6.13;;;8.00;99.90;;;;;;5046397;28;20208;-81
2023/03/29 07:11:19;;;;;;;10.75;7.32;;;8.00;99.90;;;;;;5039528;28;20247;-81
2023/03/29 07:13:47;;;;;;;7.60;5.93;;;8.10;99.90;;;;;;5048627;28;20228;-78
2023/03/29 07:16:15;;;;;;;7.95;6.07;;;8.10;99.90;;;;;;5043865;28;20230;-81
2023/03/29 07:18:43;;;;;;;7.38;5.22;;;8.00;99.90;;;;;;5053923;28;20552;-82
2023/03/29 07:21:13;;;;;;;7.35;5.75;;;8.10;99.90;;;;;;5041993;28;20196;-79
2023/03/29 07:23:41;;;;;;;5.63;4.90;;;8.30;99.90;;;;;;5046674;28;20214;-80
2023/03/29 07:26:09;;;;;;;7.18;4.97;;;8.30;99.90;;;;;;5057064;28;20195;-79
2023/03/29 07:28:38;;;;;;;7.22;5.80;;;8.30;99.90;;;;;;5051516;28;20196;-78
2023/03/29 07:31:07;;;;;;;8.82;7.05;;;8.30;99.90;;;;;;5056568;28;20231;-79
2023/03/29 07:33:34;;;;;;;12.25;6.45;;;8.40;99.90;;;;;;5064824;28;20203;-78
2023/03/29 07:36:02;;;;;;;8.18;5.43;;;8.40;99.90;;;;;;5055727;28;20311;-79
2023/03/29 07:38:31;;;;;;;11.90;5.97;;;8.50;99.90;;;;;;5061387;28;20188;-79
2023/03/29 07:41:02;;;;;;;7.95;4.95;;;8.50;99.90;;;;;;5064469;28;20264;-78
2023/03/29 07:43:29;;;;;;;6.68;5.47;;;8.50;99.90;;;;;;5048563;28;20201;-80
2023/03/29 07:45:57;;;;;;;10.40;5.88;;;8.50;99.90;;;;;;5050415;28;20201;-79
2023/03/29 07:48:24;;;;;;;7.45;5.65;;;8.50;99.90;;;;;;5053629;28;20215;-80
2023/03/29 07:50:51;;;;;;;8.88;5.50;;;8.50;99.90;;;;;;5059636;28;20223;-79
2023/03/29 07:53:18;;;;;;;9.20;6.20;;;8.50;99.90;;;;;;5047998;28;20459;-82
2023/03/29 07:55:48;;;;;;;8.52;5.82;;;8.60;99.90;;;;;;5068587;28;20240;-79
2023/03/29 07:58:15;;;;;;;7.95;6.15;;;8.50;99.90;;;;;;5057078;28;20272;-79
2023/03/29 08:00:42;;;;;;;9.20;5.97;;;8.60;99.90;;;;;;5057392;28;20239;-82
2023/03/29 08:03:11;;;;;;;9.13;7.05;;;8.60;99.90;;;;;;5057214;28;20275;-81
2023/03/29 08:05:39;;;;;;;12.43;7.00;;;8.60;99.90;;;;;;5058881;28;20216;-78
2023/03/29 08:08:06;;;;;;;6.38;4.90;;;8.70;99.90;;;;;;5058240;28;20260;-78
2023/03/29 08:10:34;;;;;;;5.63;4.82;;;8.60;99.90;;;;;;5051333;28;20236;-80
2023/03/29 08:13:04;;;;;;;10.60;6.95;;;8.80;99.90;;;;;;5061997;28;20204;-79
2023/03/29 08:15:31;;;;;;;8.93;6.38;;;8.80;99.90;;;;;;5060678;28;20224;-78
2023/03/29 08:17:58;;;;;;;6.78;5.32;;;8.80;99.90;;;;;;5062569;28;20191;-81
2023/03/29 08:20:25;;;;;;;10.80;6.20;;;8.80;99.90;;;;;;5054558;28;20276;-81
2023/03/29 08:22:52;;;;;;;7.53;5.63;;;8.80;99.90;;;;;;5043738;28;20235;-81
2023/03/29 08:25:19;;;;;;;11.80;6.35;;;8.70;99.90;;;;;;5054969;28;20287;-82
2023/03/29 08:27:46;;;;;;;8.48;5.45;;;8.80;99.90;;;;;;5057255;28;20291;-81
2023/03/29 08:30:14;;;;;;;9.07;6.30;;;8.80;99.90;;;;;;5055361;28;20270;-80
2023/03/29 08:32:41;;;;;;;12.07;6.13;;;9.00;99.90;;;;;;5059227;28;20207;-83
2023/03/29 08:35:09;;;;;;;11.60;6.40;;;9.10;99.90;;;;;;5047524;28;20244;-81
2023/03/29 08:37:36;;;;;;;7.28;6.50;;;9.20;99.90;;;;;;5037138;28;20205;-81
2023/03/29 08:40:05;;;;;;;9.88;5.88;;;9.20;99.90;;;;;;5051468;28;20236;-82
2023/03/29 08:43:02;;;;;;;6.07;5.30;;;9.20;99.90;;;;;;5038493;28;20202;-80
2023/03/29 08:45:37;;;;;;;10.52;6.20;;;9.30;99.90;;;;;;5050821;28;20243;-81
2023/03/29 08:48:17;;;;;;;9.70;6.50;;;9.30;99.90;;;;;;5047990;28;20297;-80
2023/03/29 08:50:49;;;;;;;8.73;6.75;;;9.20;99.90;;;;;;5048984;28;20236;-82
2023/03/29 08:53:20;;;;;;;10.57;7.53;;;9.30;99.90;;;;;;5052451;28;20211;-84
2023/03/29 08:55:48;;;;;;;7.68;6.30;;;9.10;99.90;;;;;;5047459;28;20226;-80
2023/03/29 08:58:18;;;;;;;8.57;6.90;;;9.10;99.90;;;;;;5060261;28;20275;-82
2023/03/29 09:00:50;;;;;;;8.95;6.85;;;9.30;99.90;;;;;;5054915;28;20203;-81
2023/03/29 09:03:23;;;;;;;7.68;6.97;;;9.40;99.90;;;;;;5057404;28;20219;-82
2023/03/29 09:05:54;;;;;;;11.60;7.22;;;9.50;99.90;;;;;;5045919;28;20236;-81
2023/03/29 09:08:22;;;;;;;8.65;7.13;;;9.50;99.90;;;;;;5062658;28;20291;-83
2023/03/29 09:10:59;;;;;;;8.02;7.13;;;9.70;99.90;;;;;;5047665;28;20279;-82
2023/03/29 09:13:37;;;;;;;12.30;6.93;;;9.80;99.90;;;;;;5052865;28;20245;-82
2023/03/29 09:16:13;;;;;;;10.32;7.50;;;9.80;99.90;;;;;;5048439;28;20303;-81
2023/03/29 09:18:52;;;;;;;9.23;7.43;;;9.90;99.90;;;;;;5050966;28;20277;-82
2023/03/29 09:21:26;;;;;;;7.57;6.78;;;10.20;99.90;;;;;;5054990;28;20209;-83
2023/03/29 09:24:08;;;;;;;9.85;8.18;;;10.40;99.90;;;;;;5051459;28;20205;-81
2023/03/29 09:26:44;;;;;;;12.80;7.88;;;10.00;99.90;;;;;;5071054;28;20231;-80
2023/03/29 09:29:37;;;;;;;13.77;7.72;;;9.90;99.90;;;;;;5062727;28;20218;-80
2023/03/29 09:32:16;;;;;;;11.32;7.43;;;9.90;99.90;;;;;;5056254;28;20323;-83
2023/03/29 09:34:48;;;;;;;8.95;7.28;;;10.00;99.90;;;;;;5048681;28;20249;-82
2023/03/29 09:37:20;;;;;;;11.45;8.18;;;10.00;99.90;;;;;;5059017;28;20260;-81
2023/03/29 09:39:48;;;;;;;13.73;9.30;;;10.30;99.90;;;;;;5062797;28;20228;-79
2023/03/29 09:42:18;;;;;;;9.85;7.93;;;10.20;99.90;;;;;;5048831;28;20211;-83
2023/03/29 09:44:50;;;;;;;15.25;10.65;;;10.20;99.90;;;;;;5050377;28;20240;-82
2023/03/29 09:47:23;;;;;;;10.32;8.60;;;10.20;99.90;;;;;;5050170;28;20268;-81
2023/03/29 09:49:56;;;;;;;13.13;9.25;;;10.30;99.90;;;;;;5031203;28;20209;-80
2023/03/29 09:52:24;;;;;;;11.77;9.68;;;10.30;99.90;;;;;;5060350;28;20303;-79
2023/03/29 09:54:51;;;;;;;9.90;8.52;;;10.30;99.90;;;;;;5063015;28;20210;-81
2023/03/29 09:57:20;;;;;;;13.77;10.50;;;10.20;99.90;;;;;;5067235;28;20191;-80
2023/03/29 09:59:49;;;;;;;12.75;9.90;;;9.90;99.90;;;;;;5052838;28;20224;-80
2023/03/29 10:02:20;;;;;;;17.95;11.80;;;10.00;99.90;;;;;;5065935;28;20224;-77
2023/03/29 10:04:54;;;;;;;15.18;10.30;;;10.00;99.90;;;;;;5065852;28;20220;-81
2023/03/29 10:07:22;;;;;;;10.63;9.52;;;9.70;99.90;;;;;;5042426;28;20206;-82
2023/03/29 10:09:52;;;;;;;12.27;9.38;;;9.90;99.90;;;;;;5052859;28;20226;-82
2023/03/29 10:12:21;;;;;;;13.57;9.38;;;10.00;99.90;;;;;;5056887;28;20214;-79
2023/03/29 10:14:51;;;;;;;11.57;9.13;;;10.20;99.90;;;;;;5067666;28;20212;-78
2023/03/29 10:17:22;;;;;;;10.82;8.05;;;10.20;99.90;;;;;;5059261;28;20227;-79
2023/03/29 10:19:50;;;;;;;13.13;10.18;;;10.40;99.90;;;;;;5064667;28;20253;-80
2023/03/29 10:22:21;;;;;;;13.30;10.80;;;10.50;99.90;;;;;;5061288;28;20214;-79
2023/03/29 10:24:51;;;;;;;11.32;9.00;;;10.40;99.90;;;;;;5059335;28;20280;-78
2023/03/29 10:27:22;;;;;;;13.30;9.85;;;10.80;99.90;;;;;;5057382;28;20204;-80
2023/03/29 10:29:51;;;;;;;14.27;9.70;;;10.70;99.90;;;;;;5057359;28;20216;-79
2023/03/29 10:32:26;;;;;;;12.82;10.23;;;10.90;99.90;;;;;;5058493;28;20289;-80
2023/03/29 10:34:55;;;;;;;13.98;11.63;;;10.80;99.90;;;;;;5044245;28;20230;-82
2023/03/29 10:37:22;;;;;;;14.88;11.80;;;10.80;99.90;;;;;;5053515;28;20211;-81
2023/03/29 10:39:50;;;;;;;16.33;10.98;;;10.90;99.90;;;;;;5052599;28;20233;-79
2023/03/29 10:42:20;;;;;;;18.13;12.50;;;10.60;99.90;;;;;;5057624;28;20222;-81
2023/03/29 10:44:54;;;;;;;15.57;12.00;;;10.50;99.90;;;;;;5047424;28;20257;-81
2023/03/29 10:47:21;;;;;;;18.58;14.63;;;10.20;99.90;;;;;;5056584;28;20270;-83
2023/03/29 10:49:53;;;;;;;15.88;13.85;;;10.00;99.90;;;;;;5055123;28;20284;-81
2023/03/29 10:52:21;;;;;;;18.17;14.48;;;10.20;99.90;;;;;;5062131;28;20208;-80
2023/03/29 10:54:50;;;;;;;16.70;13.50;;;10.30;99.90;;;;;;5057175;28;20215;-84
2023/03/29 10:57:30;;;;;;;19.98;13.80;;;10.00;99.90;;;;;;5060366;28;20221;-82
2023/03/29 11:00:05;;;;;;;13.85;12.38;;;10.00;99.90;;;;;;5043531;28;20666;-83
2023/03/29 11:03:11;;;;;;;16.08;11.70;;;10.30;99.90;;;;;;5046656;28;20206;-81
2023/03/29 11:05:47;;;;;;;12.68;10.35;;;10.90;99.90;;;;;;5046641;28;20256;-82
2023/03/29 11:08:29;;;;;;;14.35;11.65;;;11.50;99.90;;;;;;5046492;28;20290;-83
2023/03/29 11:11:07;;;;;;;13.23;9.88;;;11.70;99.90;;;;;;5037041;28;20214;-84
2023/03/29 11:13:42;;;;;;;14.43;10.95;;;12.00;99.90;;;;;;5051139;28;20200;-81
2023/03/29 11:16:17;;;;;;;19.15;12.75;;;12.20;99.90;;;;;;5046708;28;20329;-84
2023/03/29 11:18:55;;;;;;;14.43;11.82;;;12.00;99.90;;;;;;5053660;28;20289;-82
2023/03/29 11:21:32;;;;;;;13.65;10.50;;;11.90;99.90;;;;;;5058163;28;20202;-82
2023/03/29 11:24:13;;;;;;;18.55;11.13;;;12.00;99.90;;;;;;5043075;28;20203;-82
2023/03/29 11:26:55;;;;;;;15.23;11.10;;;12.40;99.90;;;;;;5042078;28;20212;-81
2023/03/29 11:29:28;;;;;;;16.52;12.35;;;12.10;99.90;;;;;;5040379;28;20215;-82
2023/03/29 11:32:03;;;;;;;13.80;11.02;;;12.50;99.90;;;;;;5054748;28;20226;-82
2023/03/29 11:34:36;;;;;;;16.52;9.73;;;12.50;99.90;;;;;;5053911;28;20313;-83
2023/03/29 11:37:15;;;;;;;14.93;10.55;;;12.60;99.90;;;;;;5041255;28;20574;-81
2023/03/29 11:39:51;;;;;;;14.77;12.27;;;12.80;99.90;;;;;;5047159;28;20204;-82
2023/03/29 11:42:23;;;;;;;13.13;11.35;;;12.90;99.90;;;;;;5043527;28;20194;-81
2023/03/29 11:44:54;;;;;;;13.23;11.15;;;13.00;99.90;;;;;;5053186;28;20257;-80
2023/03/29 11:47:23;;;;;;;19.20;10.82;;;12.90;99.90;;;;;;5042577;28;20205;-82
2023/03/29 11:49:56;;;;;;;14.45;10.15;;;12.80;99.90;;;;;;5039069;28;20204;-80
2023/03/29 11:52:29;;;;;;;13.23;10.88;;;13.00;99.90;;;;;;5053666;28;20206;-82
2023/03/29 11:55:01;;;;;;;15.55;11.35;;;13.10;99.90;;;;;;5051162;28;20595;-81
2023/03/29 11:57:34;;;;;;;12.43;10.75;;;12.80;99.90;;;;;;5046796;28;20228;-82
2023/03/29 12:00:04;;;;;;;14.18;11.77;;;12.60;99.90;;;;;;5052181;28;20204;-82
2023/03/29 12:02:36;;;;;;;12.05;10.40;;;12.60;99.90;;;;;;5046673;28;20195;-81
2023/03/29 12:05:11;;;;;;;15.18;11.18;;;12.70;99.90;;;;;;5038235;28;20287;-82
2023/03/29 12:07:43;;;;;;;16.30;11.88;;;12.90;99.90;;;;;;5062124;28;20207;-78
2023/03/29 12:10:18;;;;;;;15.57;11.55;;;13.10;99.90;;;;;;5065601;28;20184;-78
2023/03/29 12:12:51;;;;;;;14.73;11.23;;;13.00;99.90;;;;;;5047040;28;20254;-79
2023/03/29 12:15:21;;;;;;;19.23;11.98;;;13.00;99.90;;;;;;5058572;28;20204;-79
2023/03/29 12:17:54;;;;;;;12.95;11.70;;;13.30;99.90;;;;;;5066251;28;20200;-80
2023/03/29 12:20:25;;;;;;;15.93;11.07;;;13.30;99.90;;;;;;5055285;28;20267;-80
2023/03/29 12:22:54;;;;;;;14.27;11.20;;;13.20;99.90;;;;;;5049722;28;20201;-80
2023/03/29 12:25:26;;;;;;;12.63;11.07;;;13.50;99.90;;;;;;5057822;28;20225;-81
2023/03/29 12:28:07;;;;;;;16.88;12.70;;;13.80;99.90;;;;;;5046138;28;20204;-81
2023/03/29 12:30:57;;;;;;;13.13;9.63;;;13.80;99.90;;;;;;5054788;28;20192;-82
2023/03/29 12:33:43;;;;;;;11.88;10.70;;;14.10;99.90;;;;;;5053602;28;20203;-81
2023/03/29 12:36:21;;;;;;;11.73;10.52;;;14.20;99.90;;;;;;5060356;28;20287;-80
2023/03/29 12:38:52;;;;;;;13.43;12.23;;;14.30;99.90;;;;;;5059368;28;20222;-81
2023/03/29 12:41:21;;;;;;;14.38;11.60;;;14.20;99.90;;;;;;5058916;28;20193;-80
2023/03/29 12:43:49;;;;;;;16.02;13.48;;;14.60;99.90;;;;;;5062023;28;20200;-81
2023/03/29 12:46:19;;;;;;;14.68;12.27;;;14.50;99.90;;;;;;5058333;28;20226;-84
2023/03/29 12:48:49;;;;;;;13.00;11.60;;;14.10;99.90;;;;;;5047440;28;20267;-80
2023/03/29 12:51:18;;;;;;;13.50;11.90;;;14.20;99.90;;;;;;5064027;28;20268;-81
2023/03/29 12:53:48;;;;;;;15.82;12.95;;;14.60;99.90;;;;;;5032513;28;20604;-82
2023/03/29 12:56:20;;;;;;;12.63;10.80;;;14.20;99.90;;;;;;5043808;28;20692;-82
2023/03/29 12:59:06;;;;;;;13.30;10.85;;;14.40;99.90;;;;;;5047385;28;20216;-82
2023/03/29 13:01:35;;;;;;;16.23;12.00;;;14.40;99.90;;;;;;5059255;28;20208;-82